Time;durP1;ratioP1;P1;durP2;ratioP2;P2;SDS_P1;SDS_P2;PMS_P1;PMS_P2;Temp;Humidity;BMP_temperature;BMP_pressure;BME280_temperature;BME280_humidity;BME280_pressure;Samples;Min_cycle;Max_cycle;Signal;HPM_P1;HPM_P2
2023/08/21 00:01:16;;;;;;;5.18;1.85;;;15.80;99.20;;;;;;5114102;28;20039;-66
2023/08/21 00:03:42;;;;;;;2.80;1.50;;;15.80;99.00;;;;;;5114067;28;20100;-66
2023/08/21 00:06:07;;;;;;;3.70;1.33;;;15.90;98.50;;;;;;5113836;28;20545;-66
2023/08/21 00:08:33;;;;;;;4.07;1.80;;;16.00;99.80;;;;;;5113996;28;20452;-66
2023/08/21 00:10:59;;;;;;;1.40;0.70;;;16.10;99.90;;;;;;5113814;28;20048;-66
2023/08/21 00:13:24;;;;;;;0.88;0.65;;;16.20;99.90;;;;;;5113887;28;20527;-66
2023/08/21 00:15:50;;;;;;;2.47;1.05;;;15.90;99.90;;;;;;5113817;28;20039;-66
2023/08/21 00:18:15;;;;;;;2.00;1.10;;;15.70;99.10;;;;;;5113829;28;20039;-66
2023/08/21 00:20:42;;;;;;;3.88;1.45;;;16.20;99.70;;;;;;5113846;28;20493;-66
2023/08/21 00:23:08;;;;;;;4.18;1.42;;;15.90;99.70;;;;;;5112434;28;20039;-66
2023/08/21 00:25:34;;;;;;;3.88;1.45;;;15.90;98.00;;;;;;5112501;28;20395;-66
2023/08/21 00:28:00;;;;;;;3.97;1.33;;;15.80;97.70;;;;;;5113823;28;20044;-66
2023/08/21 00:30:25;;;;;;;3.80;1.20;;;15.80;98.40;;;;;;5113682;28;20076;-66
2023/08/21 00:32:51;;;;;;;5.43;1.48;;;15.80;98.40;;;;;;5113615;28;20035;-66
2023/08/21 00:35:17;;;;;;;2.05;1.10;;;15.70;99.20;;;;;;5113693;28;20035;-68
2023/08/21 00:37:42;;;;;;;2.08;1.17;;;15.60;99.90;;;;;;5113572;28;20042;-66
2023/08/21 00:40:08;;;;;;;2.92;1.25;;;15.70;99.90;;;;;;5113341;28;20093;-66
2023/08/21 00:42:34;;;;;;;1.80;1.10;;;15.70;99.90;;;;;;5113607;28;20048;-66
2023/08/21 00:44:59;;;;;;;3.40;1.00;;;15.70;99.90;;;;;;5113602;28;20483;-66
2023/08/21 00:47:26;;;;;;;1.85;0.88;;;15.90;99.70;;;;;;5113460;28;20058;-66
2023/08/21 00:49:51;;;;;;;3.60;1.08;;;16.40;99.90;;;;;;5113516;28;20084;-66
2023/08/21 00:52:17;;;;;;;3.97;0.88;;;15.70;99.90;;;;;;5113422;28;20115;-66
2023/08/21 00:54:43;;;;;;;4.07;1.73;;;15.60;99.90;;;;;;5113476;28;20074;-66
2023/08/21 00:57:10;;;;;;;2.88;0.77;;;15.60;99.90;;;;;;5113369;28;20511;-66
2023/08/21 00:59:36;;;;;;;1.33;0.90;;;15.60;99.90;;;;;;5113401;28;20067;-66
2023/08/21 01:02:02;;;;;;;1.95;1.00;;;15.50;99.90;;;;;;5113402;28;20031;-66
2023/08/21 01:04:28;;;;;;;3.17;1.13;;;15.60;99.90;;;;;;5111653;28;20088;-66
2023/08/21 01:06:54;;;;;;;2.50;1.08;;;15.50;99.90;;;;;;5113022;28;20495;-66
2023/08/21 01:09:58;;;;;;;3.42;1.27;;;15.50;99.90;;;;;;5113181;28;20044;-63
2023/08/21 01:12:34;;;;;;;2.33;0.82;;;15.50;99.90;;;;;;5112906;28;20044;-64
2023/08/21 01:15:03;;;;;;;2.58;1.00;;;15.60;99.90;;;;;;5113237;28;20487;-63
2023/08/21 01:17:34;;;;;;;2.00;0.90;;;16.00;99.90;;;;;;5113238;28;20035;-63
2023/08/21 01:20:00;;;;;;;1.88;0.80;;;15.50;99.90;;;;;;5113225;28;20498;-64
2023/08/21 01:22:27;;;;;;;3.15;1.10;;;15.50;99.90;;;;;;5113210;28;20040;-63
2023/08/21 01:24:54;;;;;;;2.15;1.20;;;15.40;99.90;;;;;;5112846;28;20051;-63
2023/08/21 01:27:21;;;;;;;3.90;1.20;;;15.40;99.90;;;;;;5117129;28;20075;-64
2023/08/21 01:29:47;;;;;;;2.15;1.17;;;15.30;99.90;;;;;;5115452;28;20050;-64
2023/08/21 01:32:31;;;;;;;2.20;1.00;;;15.10;99.90;;;;;;5116572;28;20039;-64
2023/08/21 01:34:58;;;;;;;2.55;1.17;;;15.40;99.90;;;;;;5116942;28;20541;-63
2023/08/21 01:37:25;;;;;;;1.90;1.15;;;15.30;99.90;;;;;;5116563;28;20039;-66
2023/08/21 01:39:51;;;;;;;2.38;0.90;;;15.30;99.90;;;;;;5116854;28;20074;-63
2023/08/21 01:42:17;;;;;;;1.98;1.23;;;15.30;99.90;;;;;;5116778;28;20075;-63
2023/08/21 01:44:45;;;;;;;2.65;1.45;;;15.60;99.90;;;;;;5115411;28;20403;-64
2023/08/21 01:47:11;;;;;;;2.80;1.90;;;14.90;99.90;;;;;;5116393;28;20039;-64
2023/08/21 01:49:37;;;;;;;2.42;1.35;;;15.00;99.90;;;;;;5116700;28;20046;-63
2023/08/21 01:52:03;;;;;;;1.73;0.90;;;15.20;99.90;;;;;;5116552;28;20104;-64
2023/08/21 01:54:28;;;;;;;2.17;1.25;;;15.20;99.90;;;;;;5116568;28;20144;-64
2023/08/21 01:56:54;;;;;;;3.08;1.25;;;15.10;99.90;;;;;;5116593;28;20038;-64
2023/08/21 01:59:20;;;;;;;1.52;0.80;;;15.10;99.90;;;;;;5116413;28;20082;-64
2023/08/21 02:01:45;;;;;;;2.55;1.17;;;15.40;99.90;;;;;;5116730;28;20394;-66
2023/08/21 02:04:11;;;;;;;1.85;1.00;;;15.10;99.90;;;;;;5117528;22;20052;-59
2023/08/21 02:06:36;;;;;;;2.90;1.17;;;15.00;99.90;;;;;;5054857;28;20444;-63
2023/08/21 02:09:02;;;;;;;2.08;1.10;;;15.10;99.90;;;;;;5056143;28;20130;-64
2023/08/21 02:11:29;;;;;;;2.13;1.10;;;15.00;99.90;;;;;;5055378;28;20072;-63
2023/08/21 02:13:54;;;;;;;2.15;1.45;;;15.00;99.90;;;;;;5055575;28;20495;-63
2023/08/21 02:16:21;;;;;;;6.07;1.23;;;15.00;99.90;;;;;;5037455;28;20048;-63
2023/08/21 02:18:47;;;;;;;3.05;1.48;;;15.00;99.90;;;;;;5055516;28;20443;-64
2023/08/21 02:21:13;;;;;;;3.63;1.25;;;14.80;99.90;;;;;;5055478;28;20112;-63
2023/08/21 02:23:38;;;;;;;2.65;1.25;;;15.00;99.90;;;;;;5055190;28;20033;-63
2023/08/21 02:26:04;;;;;;;2.83;1.10;;;15.00;99.90;;;;;;5055033;28;20465;-63
2023/08/21 02:28:30;;;;;;;2.67;1.45;;;14.90;99.90;;;;;;5055031;28;20029;-64
2023/08/21 02:30:55;;;;;;;3.75;1.63;;;14.60;99.90;;;;;;5055215;28;20048;-63
2023/08/21 02:33:21;;;;;;;1.70;1.05;;;14.90;99.90;;;;;;5055182;28;20037;-63
2023/08/21 02:35:47;;;;;;;3.92;1.58;;;14.90;99.90;;;;;;5054415;28;20025;-63
2023/08/21 02:38:12;;;;;;;4.65;1.70;;;14.90;99.90;;;;;;5054362;28;20041;-64
2023/08/21 02:40:38;;;;;;;2.58;0.93;;;14.90;99.90;;;;;;5037051;28;20159;-64
2023/08/21 02:43:04;;;;;;;2.50;0.88;;;14.90;99.90;;;;;;5054739;28;20060;-63
2023/08/21 02:45:30;;;;;;;2.47;1.05;;;14.80;99.90;;;;;;5054894;28;20044;-64
2023/08/21 02:47:56;;;;;;;3.40;1.15;;;14.80;99.90;;;;;;5054881;28;20400;-64
2023/08/21 02:50:22;;;;;;;2.72;0.93;;;15.10;99.90;;;;;;5054863;28;20040;-63
2023/08/21 02:52:47;;;;;;;2.17;0.88;;;15.00;99.90;;;;;;5054698;28;20095;-64
2023/08/21 02:55:14;;;;;;;2.00;1.10;;;14.80;99.90;;;;;;5054789;28;20079;-63
2023/08/21 02:57:39;;;;;;;4.20;1.10;;;14.70;99.90;;;;;;5054795;28;20087;-63
2023/08/21 03:00:07;;;;;;;2.03;1.05;;;14.60;99.90;;;;;;5036715;28;20041;-64
2023/08/21 03:02:33;;;;;;;2.08;1.02;;;14.70;99.90;;;;;;5054370;28;20121;-64
2023/08/21 03:04:59;;;;;;;1.80;1.00;;;14.70;99.90;;;;;;5054194;28;20103;-64
2023/08/21 03:07:24;;;;;;;5.38;1.65;;;14.70;99.90;;;;;;5054232;28;20052;-63
2023/08/21 03:09:50;;;;;;;3.05;1.30;;;14.60;99.90;;;;;;5054572;28;20116;-63
2023/08/21 03:12:16;;;;;;;3.05;1.48;;;14.70;99.90;;;;;;5054399;28;20396;-64
2023/08/21 03:14:41;;;;;;;1.33;1.00;;;14.70;99.90;;;;;;5053492;28;20033;-59
2023/08/21 03:17:07;;;;;;;3.08;1.00;;;14.70;99.90;;;;;;5052950;28;20048;-59
2023/08/21 03:19:33;;;;;;;3.22;1.35;;;14.60;99.90;;;;;;5054392;28;20036;-59
2023/08/21 03:21:59;;;;;;;2.78;1.00;;;14.60;99.90;;;;;;5054141;28;20047;-59
2023/08/21 03:24:24;;;;;;;1.92;1.23;;;14.60;99.90;;;;;;5036530;28;20044;-59
2023/08/21 03:26:50;;;;;;;2.58;1.25;;;14.60;99.90;;;;;;5054263;28;20037;-59
2023/08/21 03:29:15;;;;;;;2.35;0.95;;;14.60;99.90;;;;;;5054170;28;20036;-59
2023/08/21 03:31:41;;;;;;;6.03;1.40;;;14.60;99.90;;;;;;5054130;28;20044;-59
2023/08/21 03:34:07;;;;;;;2.45;1.33;;;14.60;99.90;;;;;;5054173;28;20115;-59
2023/08/21 03:36:33;;;;;;;1.17;0.85;;;15.00;99.90;;;;;;5054081;28;20070;-59
2023/08/21 03:38:59;;;;;;;2.75;1.08;;;14.60;99.90;;;;;;5053673;28;20400;-60
2023/08/21 03:41:25;;;;;;;9.30;1.75;;;14.60;99.90;;;;;;5053527;28;20060;-59
2023/08/21 03:43:51;;;;;;;4.43;1.63;;;14.60;99.90;;;;;;5054018;28;20123;-58
2023/08/21 03:46:17;;;;;;;3.10;1.02;;;14.60;99.90;;;;;;5054196;28;20091;-59
2023/08/21 03:48:43;;;;;;;7.05;1.60;;;14.60;99.90;;;;;;5053495;28;20037;-59
2023/08/21 03:51:09;;;;;;;3.85;1.00;;;14.50;99.90;;;;;;5053844;28;20541;-59
2023/08/21 03:53:34;;;;;;;4.80;1.27;;;14.60;99.90;;;;;;5053725;28;20045;-59
2023/08/21 03:56:00;;;;;;;3.00;0.98;;;14.50;99.90;;;;;;5053506;28;20090;-59
2023/08/21 03:58:26;;;;;;;2.40;1.38;;;14.50;99.90;;;;;;5053684;28;20033;-59
2023/08/21 04:00:52;;;;;;;2.25;1.13;;;14.40;99.90;;;;;;5053669;28;20036;-59
2023/08/21 04:03:18;;;;;;;3.03;1.20;;;14.50;99.90;;;;;;5053586;28;20040;-59
2023/08/21 04:05:44;;;;;;;2.28;1.00;;;14.50;99.90;;;;;;5053211;28;20460;-59
2023/08/21 04:08:09;;;;;;;2.70;1.05;;;14.50;99.90;;;;;;5053465;28;20079;-58
2023/08/21 04:10:35;;;;;;;6.03;1.13;;;14.40;99.90;;;;;;5053213;28;20045;-59
2023/08/21 04:13:00;;;;;;;3.05;1.10;;;14.40;99.90;;;;;;5053417;28;20083;-59
2023/08/21 04:15:26;;;;;;;2.83;1.10;;;14.40;99.90;;;;;;5053403;28;20029;-59
2023/08/21 04:17:52;;;;;;;4.30;0.93;;;14.40;99.90;;;;;;5053095;28;20476;-59
2023/08/21 04:20:20;;;;;;;2.42;1.45;;;14.40;99.90;;;;;;5053311;28;20079;-59
2023/08/21 04:22:45;;;;;;;2.30;1.00;;;14.20;99.90;;;;;;5053052;28;20068;-59
2023/08/21 04:25:11;;;;;;;1.52;0.85;;;14.30;99.90;;;;;;5035263;28;20048;-63
2023/08/21 04:27:37;;;;;;;1.42;1.10;;;14.30;99.90;;;;;;5053171;28;20098;-64
2023/08/21 04:30:03;;;;;;;1.95;1.00;;;14.30;99.90;;;;;;5035123;28;20124;-64
2023/08/21 04:32:29;;;;;;;3.35;1.60;;;14.30;99.90;;;;;;5052966;28;20048;-63
2023/08/21 04:34:54;;;;;;;2.80;1.25;;;14.60;99.90;;;;;;5052818;28;20033;-63
2023/08/21 04:37:20;;;;;;;2.35;1.40;;;14.70;99.90;;;;;;5053087;28;20079;-63
2023/08/21 04:39:49;;;;;;;2.70;1.05;;;14.30;99.90;;;;;;5053011;28;20361;-62
2023/08/21 04:42:15;;;;;;;2.08;1.02;;;14.30;99.90;;;;;;5052983;28;20438;-63
2023/08/21 04:44:40;;;;;;;2.38;1.48;;;14.30;99.90;;;;;;5018476;28;20098;-63
2023/08/21 04:47:22;;;;;;;2.83;1.40;;;14.30;99.90;;;;;;5052860;28;20033;-63
2023/08/21 04:49:49;;;;;;;2.00;1.05;;;14.30;99.90;;;;;;5052947;28;20041;-63
2023/08/21 04:52:15;;;;;;;3.50;1.13;;;14.30;99.90;;;;;;5052838;28;20088;-63
2023/08/21 04:54:41;;;;;;;4.68;1.45;;;14.40;99.90;;;;;;5052931;28;20492;-63
2023/08/21 04:57:06;;;;;;;3.15;1.20;;;14.80;99.90;;;;;;5052893;28;20490;-63
2023/08/21 04:59:32;;;;;;;3.25;1.27;;;14.40;99.90;;;;;;5053661;28;20115;-63
2023/08/21 05:01:57;;;;;;;4.68;1.13;;;14.90;99.90;;;;;;5056734;28;20047;-63
2023/08/21 05:04:23;;;;;;;2.75;1.35;;;14.40;99.90;;;;;;5056720;28;20246;-64
2023/08/21 05:06:48;;;;;;;2.30;1.25;;;14.40;99.90;;;;;;5056872;28;20072;-63
2023/08/21 05:09:14;;;;;;;4.10;1.38;;;14.50;99.90;;;;;;5038866;28;20037;-63
2023/08/21 05:11:40;;;;;;;1.63;1.02;;;14.50;99.90;;;;;;5038437;28;20049;-63
2023/08/21 05:14:06;;;;;;;3.05;1.40;;;14.50;99.90;;;;;;5056722;28;20442;-63
2023/08/21 05:16:32;;;;;;;4.10;1.40;;;14.50;99.90;;;;;;5038476;28;20045;-63
2023/08/21 05:18:57;;;;;;;4.15;1.50;;;14.50;99.90;;;;;;5056653;28;20072;-63
2023/08/21 05:21:23;;;;;;;1.73;1.05;;;14.90;99.90;;;;;;5056537;28;20112;-63
2023/08/21 05:23:48;;;;;;;3.67;1.23;;;14.60;99.90;;;;;;5056528;28;20472;-63
2023/08/21 05:26:14;;;;;;;2.08;1.30;;;14.60;99.90;;;;;;5056161;28;20088;-63
2023/08/21 05:28:40;;;;;;;1.33;0.90;;;14.60;99.90;;;;;;5056399;28;20075;-63
2023/08/21 05:31:05;;;;;;;3.58;1.02;;;14.70;99.90;;;;;;5056358;28;20396;-64
2023/08/21 05:33:31;;;;;;;1.20;1.00;;;14.70;99.90;;;;;;5056326;28;20033;-64
2023/08/21 05:35:57;;;;;;;2.08;1.13;;;14.80;99.90;;;;;;5056511;28;20082;-68
2023/08/21 05:38:22;;;;;;;5.47;1.17;;;15.70;99.90;;;;;;5021879;28;20045;-69
2023/08/21 05:40:48;;;;;;;5.05;1.10;;;15.40;99.90;;;;;;5056250;28;20116;-70
2023/08/21 05:43:14;;;;;;;2.17;1.00;;;15.00;99.90;;;;;;5056053;28;20041;-70
2023/08/21 05:45:39;;;;;;;4.75;2.08;;;15.10;99.90;;;;;;5056265;28;20076;-70
2023/08/21 05:48:05;;;;;;;1.85;1.08;;;15.20;99.90;;;;;;5038240;28;20384;-70
2023/08/21 05:50:31;;;;;;;3.10;1.05;;;15.20;99.90;;;;;;5056127;28;20037;-70
2023/08/21 05:52:57;;;;;;;4.22;1.00;;;15.30;99.90;;;;;;5037773;28;20388;-70
2023/08/21 05:55:23;;;;;;;3.13;1.05;;;15.40;99.90;;;;;;5056150;28;20078;-70
2023/08/21 05:57:49;;;;;;;1.77;1.20;;;15.40;99.90;;;;;;5055696;28;20471;-69
2023/08/21 06:00:15;;;;;;;2.13;0.95;;;15.60;99.90;;;;;;5055822;28;20037;-68
2023/08/21 06:02:44;;;;;;;3.00;1.35;;;15.70;99.90;;;;;;5055729;28;20132;-65
2023/08/21 06:05:09;;;;;;;2.40;1.13;;;15.70;99.90;;;;;;5055453;28;20139;-64
2023/08/21 06:07:35;;;;;;;2.95;1.40;;;15.80;99.90;;;;;;5037775;28;20484;-63
2023/08/21 06:10:00;;;;;;;4.10;1.45;;;15.90;99.90;;;;;;5055565;28;20087;-63
2023/08/21 06:12:26;;;;;;;5.75;1.90;;;15.90;99.90;;;;;;5055365;28;20051;-63
2023/08/21 06:14:52;;;;;;;2.58;1.23;;;16.10;99.90;;;;;;5055598;28;20537;-63
2023/08/21 06:17:18;;;;;;;2.97;1.10;;;16.20;99.90;;;;;;5055510;28;20048;-63
2023/08/21 06:19:44;;;;;;;3.10;1.33;;;16.40;99.90;;;;;;5055217;28;20098;-64
2023/08/21 06:22:09;;;;;;;2.10;1.38;;;16.50;99.90;;;;;;5037328;28;20483;-65
2023/08/21 06:24:35;;;;;;;2.70;1.25;;;16.60;99.90;;;;;;5055384;28;20033;-64
2023/08/21 06:27:00;;;;;;;4.85;1.58;;;16.70;99.90;;;;;;5055331;28;20076;-63
2023/08/21 06:29:26;;;;;;;4.07;1.50;;;16.90;99.90;;;;;;5055220;28;20041;-63
2023/08/21 06:31:52;;;;;;;2.20;0.90;;;17.50;99.90;;;;;;5037314;28;20514;-63
2023/08/21 06:34:17;;;;;;;3.10;1.33;;;17.20;99.90;;;;;;5055134;28;20041;-63
2023/08/21 06:36:43;;;;;;;4.07;1.10;;;17.40;99.90;;;;;;5055062;28;20063;-63
2023/08/21 06:39:09;;;;;;;2.83;1.00;;;18.10;99.90;;;;;;5054676;28;20135;-63
2023/08/21 06:41:34;;;;;;;3.75;1.50;;;17.70;99.90;;;;;;5054984;28;20040;-63
2023/08/21 06:44:00;;;;;;;4.70;1.75;;;17.90;99.90;;;;;;5054699;28;20059;-63
2023/08/21 06:46:25;;;;;;;10.40;1.45;;;18.10;99.90;;;;;;5037176;28;20037;-64
2023/08/21 06:48:51;;;;;;;3.38;1.77;;;18.20;99.90;;;;;;5054925;28;20041;-63
2023/08/21 06:51:17;;;;;;;1.73;0.88;;;18.40;99.90;;;;;;5054471;28;20449;-64
2023/08/21 06:53:43;;;;;;;1.58;1.30;;;18.50;99.90;;;;;;5054847;28;20072;-64
2023/08/21 06:56:08;;;;;;;4.07;1.27;;;18.60;99.90;;;;;;5054781;28;20025;-64
2023/08/21 06:58:34;;;;;;;2.63;1.08;;;18.80;99.90;;;;;;5054749;28;20088;-63
2023/08/21 07:01:00;;;;;;;2.08;0.93;;;18.90;95.40;;;;;;5054314;28;20480;-63
2023/08/21 07:03:26;;;;;;;1.77;0.77;;;19.10;82.60;;;;;;5036566;28;20473;-63
2023/08/21 07:05:56;;;;;;;4.03;1.05;;;19.40;75.70;;;;;;5054226;28;20134;-63
2023/08/21 07:08:26;;;;;;;5.50;1.35;;;19.20;61.20;;;;;;5054604;28;20045;-63
2023/08/21 07:10:52;;;;;;;2.60;0.70;;;19.40;31.30;;;;;;5054138;28;20052;-64
2023/08/21 07:13:18;;;;;;;2.10;1.10;;;19.40;1.00;;;;;;5054421;28;20566;-63
2023/08/21 07:15:44;;;;;;;4.18;1.02;;;19.50;1.00;;;;;;5054669;28;20511;-70
2023/08/21 07:18:10;;;;;;;3.67;1.02;;;19.70;1.00;;;;;;5054135;28;20033;-70
2023/08/21 07:20:36;;;;;;;2.33;1.00;;;19.70;1.00;;;;;;5054504;28;20039;-68
2023/08/21 07:23:01;;;;;;;1.73;1.05;;;19.70;1.00;;;;;;5035314;28;20045;-69
2023/08/21 07:25:30;;;;;;;3.25;1.13;;;19.80;1.00;;;;;;5054276;28;20472;-67
2023/08/21 07:27:56;;;;;;;3.95;1.25;;;19.90;1.00;;;;;;5054210;28;20430;-66
2023/08/21 07:30:22;;;;;;;2.35;0.70;;;20.00;1.00;;;;;;5054045;28;20037;-67
2023/08/21 07:32:48;;;;;;;3.92;1.35;;;20.10;1.00;;;;;;5053753;28;20106;-67
2023/08/21 07:35:14;;;;;;;4.18;1.48;;;20.10;1.00;;;;;;5053960;28;20041;-68
2023/08/21 07:37:43;;;;;;;1.67;0.70;;;20.10;99.90;;;;;;5054013;28;20361;-68
2023/08/21 07:40:09;;;;;;;2.10;0.85;;;20.30;99.90;;;;;;5035846;28;20046;-67
2023/08/21 07:42:35;;;;;;;1.85;0.60;;;20.30;99.90;;;;;;5054021;28;20090;-70
2023/08/21 07:45:00;;;;;;;2.13;0.90;;;20.20;99.90;;;;;;5053810;28;20116;-69
2023/08/21 07:47:29;;;;;;;1.75;0.90;;;20.40;99.90;;;;;;5053681;28;20490;-68
2023/08/21 07:49:55;;;;;;;2.40;0.75;;;20.50;99.90;;;;;;5053748;28;20045;-68
2023/08/21 07:52:22;;;;;;;1.38;0.80;;;20.50;99.90;;;;;;5053547;28;20037;-68
2023/08/21 07:54:51;;;;;;;3.90;1.10;;;20.60;99.90;;;;;;5053644;28;20049;-68
2023/08/21 07:57:17;;;;;;;1.45;1.02;;;20.70;99.90;;;;;;5035391;28;20078;-68
2023/08/21 07:59:43;;;;;;;1.90;0.77;;;20.70;99.90;;;;;;5053666;28;20041;-70
2023/08/21 08:02:11;;;;;;;1.95;0.80;;;20.80;99.90;;;;;;5053517;28;20120;-68
2023/08/21 08:04:37;;;;;;;1.55;0.50;;;20.90;99.90;;;;;;5035319;28;20186;-69
2023/08/21 08:07:02;;;;;;;2.17;0.90;;;21.00;99.90;;;;;;5053526;28;20107;-68
2023/08/21 08:09:28;;;;;;;2.22;1.08;;;21.00;1.00;;;;;;5053080;28;20060;-68
2023/08/21 08:11:53;;;;;;;0.50;0.30;;;21.10;99.90;;;;;;5053324;28;20140;-69
2023/08/21 08:14:19;;;;;;;1.65;0.77;;;21.20;99.90;;;;;;5053088;28;20056;-68
2023/08/21 08:16:44;;;;;;;4.90;1.20;;;21.30;99.90;;;;;;5053321;28;20028;-68
2023/08/21 08:19:10;;;;;;;3.38;0.85;;;21.40;73.10;;;;;;5053292;28;20037;-69
2023/08/21 08:21:36;;;;;;;2.40;0.93;;;21.40;99.90;;;;;;5053302;28;20135;-68
2023/08/21 08:24:02;;;;;;;1.92;1.05;;;21.50;1.00;;;;;;5035113;28;20461;-69
2023/08/21 08:26:27;;;;;;;1.60;1.00;;;21.50;1.00;;;;;;5053330;28;20044;-63
2023/08/21 08:28:53;;;;;;;1.90;0.73;;;21.50;99.90;;;;;;5053184;28;20091;-64
2023/08/21 08:31:19;;;;;;;3.03;1.17;;;21.80;99.90;;;;;;5053031;28;20037;-63
2023/08/21 08:33:45;;;;;;;2.08;0.77;;;21.70;1.00;;;;;;5053095;28;20507;-63
2023/08/21 08:36:11;;;;;;;2.33;0.90;;;21.70;99.90;;;;;;5052979;28;20037;-63
2023/08/21 08:38:37;;;;;;;2.35;0.88;;;21.80;1.00;;;;;;5053012;28;20064;-63
2023/08/21 08:41:11;;;;;;;1.23;0.40;;;22.10;99.90;;;;;;5053046;28;20037;-63
2023/08/21 08:43:40;;;;;;;1.35;0.57;;;21.90;1.00;;;;;;5035135;28;20124;-63
2023/08/21 08:46:07;;;;;;;1.88;0.88;;;22.00;99.90;;;;;;5052732;28;20037;-63
2023/08/21 08:48:34;;;;;;;1.20;0.50;;;22.10;99.90;;;;;;5052555;28;20037;-63
2023/08/21 08:51:00;;;;;;;1.05;0.63;;;22.10;1.00;;;;;;5052686;28;20127;-63
2023/08/21 08:53:28;;;;;;;1.05;0.60;;;22.40;1.00;;;;;;5052778;28;20396;-63
2023/08/21 08:55:53;;;;;;;3.72;1.33;;;22.60;1.00;;;;;;5052636;28;20045;-63
2023/08/21 08:58:19;;;;;;;2.35;0.90;;;22.30;99.90;;;;;;5052867;28;20128;-64
2023/08/21 09:00:45;;;;;;;2.05;0.88;;;22.40;99.90;;;;;;5052551;28;20392;-63
2023/08/21 09:03:12;;;;;;;2.47;0.80;;;22.40;99.90;;;;;;5052553;28;20103;-64
2023/08/21 09:05:40;;;;;;;2.83;0.90;;;22.50;99.90;;;;;;5052379;28;20053;-64
2023/08/21 09:08:10;;;;;;;2.47;0.65;;;22.50;99.90;;;;;;5052765;28;20131;-64
2023/08/21 09:10:40;;;;;;;0.57;0.50;;;22.60;99.90;;;;;;5052767;28;20088;-63
2023/08/21 09:13:13;;;;;;;1.40;0.75;;;22.60;99.90;;;;;;5051261;28;20033;-63
2023/08/21 09:15:42;;;;;;;1.20;0.75;;;22.60;1.00;;;;;;5052711;28;20506;-65
2023/08/21 09:18:09;;;;;;;1.98;0.93;;;22.60;99.90;;;;;;5052701;28;20037;-64
2023/08/21 09:20:36;;;;;;;1.98;0.82;;;22.60;99.90;;;;;;5052740;28;20037;-65
2023/08/21 09:23:03;;;;;;;4.00;1.20;;;22.70;99.90;;;;;;5052412;28;20044;-65
2023/08/21 09:25:34;;;;;;;1.65;0.47;;;22.70;99.90;;;;;;5052607;28;20049;-65
2023/08/21 09:28:04;;;;;;;2.03;0.82;;;22.80;99.90;;;;;;5052632;28;20041;-64
2023/08/21 09:30:29;;;;;;;1.27;0.60;;;22.80;99.90;;;;;;5052358;28;20033;-64
2023/08/21 09:33:04;;;;;;;2.10;0.80;;;22.80;99.90;;;;;;5052486;28;20044;-65
2023/08/21 09:35:33;;;;;;;2.20;0.70;;;22.90;99.90;;;;;;5052268;28;20120;-62
2023/08/21 09:37:59;;;;;;;1.48;0.90;;;22.90;99.90;;;;;;5034540;28;20064;-64
2023/08/21 09:40:25;;;;;;;2.28;1.40;;;22.80;99.90;;;;;;5052458;28;20515;-64
2023/08/21 09:42:55;;;;;;;0.80;0.73;;;22.90;99.90;;;;;;5052213;28;20041;-64
2023/08/21 09:45:24;;;;;;;2.65;1.02;;;23.00;99.90;;;;;;5052827;28;20442;-64
2023/08/21 09:47:52;;;;;;;1.17;0.80;;;23.10;99.90;;;;;;5056151;28;20408;-65
2023/08/21 09:50:19;;;;;;;4.03;1.10;;;23.10;99.90;;;;;;5056053;28;20045;-64
2023/08/21 09:52:46;;;;;;;1.05;0.75;;;23.20;99.90;;;;;;5054481;28;20048;-64
2023/08/21 09:55:13;;;;;;;2.55;1.00;;;23.30;99.90;;;;;;5055951;28;20029;-64
2023/08/21 09:57:41;;;;;;;1.17;0.82;;;23.30;99.90;;;;;;5055635;28;20044;-64
2023/08/21 10:00:20;;;;;;;1.25;0.70;;;23.40;99.90;;;;;;5055880;28;20120;-64
2023/08/21 10:02:50;;;;;;;0.98;0.80;;;23.40;99.90;;;;;;5055883;28;20037;-64
2023/08/21 10:05:17;;;;;;;3.28;1.10;;;23.40;99.90;;;;;;5055429;28;20061;-64
2023/08/21 10:07:48;;;;;;;3.95;0.77;;;23.60;99.90;;;;;;5055453;28;20051;-63
2023/08/21 10:10:14;;;;;;;1.58;0.98;;;23.70;99.90;;;;;;5055706;28;20234;-65
2023/08/21 10:12:40;;;;;;;0.95;0.60;;;23.70;99.90;;;;;;5055581;28;20120;-65
2023/08/21 10:15:09;;;;;;;1.75;0.82;;;23.80;99.90;;;;;;5055660;28;20450;-64
2023/08/21 10:17:35;;;;;;;0.68;0.50;;;23.80;99.90;;;;;;5055535;28;20048;-64
2023/08/21 10:20:09;;;;;;;1.75;0.60;;;23.80;99.90;;;;;;5055253;28;20044;-64
2023/08/21 10:22:49;;;;;;;2.50;1.05;;;23.90;99.90;;;;;;5055441;28;20087;-64
2023/08/21 10:25:21;;;;;;;0.95;0.40;;;23.90;99.90;;;;;;5055412;28;20086;-64
2023/08/21 10:27:51;;;;;;;2.75;0.98;;;23.90;99.90;;;;;;5055416;28;20112;-63
2023/08/21 10:30:27;;;;;;;0.33;0.30;;;24.00;99.90;;;;;;5055362;28;20044;-64
2023/08/21 10:32:58;;;;;;;0.50;0.50;;;24.00;99.90;;;;;;5054880;28;20311;-64
2023/08/21 10:35:31;;;;;;;4.35;0.88;;;24.00;99.90;;;;;;5055046;28;20044;-65
2023/08/21 10:38:12;;;;;;;1.10;0.50;;;24.10;99.90;;;;;;5054861;28;20583;-64
2023/08/21 10:40:39;;;;;;;1.15;0.75;;;24.10;99.90;;;;;;5055034;28;20037;-64
2023/08/21 10:43:04;;;;;;;1.42;0.82;;;24.20;99.90;;;;;;5054998;28;20381;-64
2023/08/21 10:45:30;;;;;;;1.00;0.57;;;24.30;99.90;;;;;;5037085;28;20044;-65
2023/08/21 10:47:58;;;;;;;2.42;0.90;;;24.10;99.90;;;;;;5054893;28;20050;-65
2023/08/21 10:50:24;;;;;;;1.23;0.63;;;24.10;99.90;;;;;;5054830;28;20480;-64
2023/08/21 10:52:52;;;;;;;1.52;0.77;;;24.00;99.90;;;;;;5054425;28;20063;-64
2023/08/21 10:55:18;;;;;;;1.98;0.60;;;23.90;99.90;;;;;;5054707;28;20037;-64
2023/08/21 10:57:47;;;;;;;1.50;0.90;;;23.80;99.90;;;;;;5035629;28;20090;-64
2023/08/21 11:00:14;;;;;;;2.05;1.23;;;23.90;99.90;;;;;;5054603;28;20438;-64
2023/08/21 11:02:43;;;;;;;4.00;1.00;;;24.00;99.90;;;;;;5054639;28;20037;-64
2023/08/21 11:05:09;;;;;;;2.70;0.98;;;24.10;99.90;;;;;;5054096;28;20049;-64
2023/08/21 11:07:39;;;;;;;2.40;1.08;;;24.10;99.90;;;;;;5054483;28;20056;-64
2023/08/21 11:10:08;;;;;;;1.07;0.67;;;24.20;99.90;;;;;;5054185;28;20037;-65
2023/08/21 11:12:34;;;;;;;1.95;0.70;;;24.20;99.90;;;;;;5054286;28;20305;-65
2023/08/21 11:14:59;;;;;;;2.13;0.90;;;24.30;99.90;;;;;;5036167;28;20033;-65
2023/08/21 11:17:25;;;;;;;2.92;0.80;;;24.40;99.90;;;;;;5054230;28;20044;-64
2023/08/21 11:19:51;;;;;;;1.85;0.80;;;24.40;99.90;;;;;;5053958;28;20071;-64
2023/08/21 11:22:17;;;;;;;1.63;0.60;;;24.20;99.90;;;;;;5053884;28;20045;-63
2023/08/21 11:24:47;;;;;;;2.70;1.08;;;24.20;99.90;;;;;;5054251;28;20040;-64
2023/08/21 11:27:17;;;;;;;0.67;0.67;;;24.20;99.90;;;;;;5053864;28;20037;-63
2023/08/21 11:29:45;;;;;;;2.60;0.70;;;24.40;99.90;;;;;;5054074;28;20041;-64
2023/08/21 11:32:19;;;;;;;0.55;0.55;;;24.30;99.90;;;;;;5054043;28;20102;-65
2023/08/21 11:34:55;;;;;;;2.78;1.17;;;24.30;99.90;;;;;;5054017;28;20564;-65
2023/08/21 11:37:24;;;;;;;1.33;0.60;;;24.30;99.90;;;;;;5053679;28;20043;-65
2023/08/21 11:39:53;;;;;;;1.77;0.90;;;24.40;99.90;;;;;;5053926;28;20047;-64
2023/08/21 11:42:29;;;;;;;1.77;1.00;;;24.50;99.90;;;;;;5053833;28;20036;-64
2023/08/21 11:44:54;;;;;;;1.95;0.80;;;24.60;99.90;;;;;;5053913;28;20063;-64
2023/08/21 11:47:22;;;;;;;1.73;0.90;;;24.60;99.90;;;;;;5035898;28;20052;-64
2023/08/21 11:49:49;;;;;;;2.08;0.82;;;24.60;99.90;;;;;;5035968;28;20132;-64
2023/08/21 11:52:20;;;;;;;3.17;0.95;;;24.40;99.90;;;;;;5053156;28;20036;-64
2023/08/21 11:54:48;;;;;;;1.45;0.73;;;24.30;99.90;;;;;;5053626;28;20071;-64
2023/08/21 11:57:14;;;;;;;1.38;0.65;;;24.40;99.90;;;;;;5053543;28;20037;-64
2023/08/21 11:59:40;;;;;;;5.75;1.20;;;24.40;99.90;;;;;;5053761;28;20037;-68
2023/08/21 12:02:18;;;;;;;0.95;0.90;;;24.50;99.90;;;;;;5053399;28;20479;-68
2023/08/21 12:04:44;;;;;;;2.20;0.90;;;24.40;99.90;;;;;;5035354;28;20071;-69
2023/08/21 12:07:10;;;;;;;3.67;0.80;;;24.50;99.90;;;;;;5053341;28;20044;-69
2023/08/21 12:09:35;;;;;;;1.10;0.50;;;24.20;99.90;;;;;;5053000;28;20067;-68
2023/08/21 12:12:01;;;;;;;2.55;0.60;;;24.30;99.90;;;;;;5053277;28;20072;-69
2023/08/21 12:14:28;;;;;;;1.73;0.70;;;24.40;99.90;;;;;;5035355;28;20388;-68
2023/08/21 12:16:54;;;;;;;3.33;0.70;;;24.50;99.90;;;;;;5035230;28;20399;-68
2023/08/21 12:19:23;;;;;;;1.15;0.90;;;24.60;99.90;;;;;;5053355;28;20346;-67
2023/08/21 12:21:48;;;;;;;0.85;0.50;;;24.60;99.90;;;;;;5053159;28;20041;-68
2023/08/21 12:24:14;;;;;;;2.97;0.60;;;24.70;99.90;;;;;;5053082;28;20499;-68
2023/08/21 12:26:39;;;;;;;3.17;0.68;;;24.70;99.90;;;;;;5053236;28;20106;-67
2023/08/21 12:29:05;;;;;;;0.98;0.88;;;24.80;99.90;;;;;;5053190;28;20049;-69
2023/08/21 12:31:31;;;;;;;2.35;1.00;;;24.90;99.90;;;;;;5052945;28;20033;-68
2023/08/21 12:33:56;;;;;;;2.88;1.08;;;24.90;99.90;;;;;;5052860;28;20041;-69
2023/08/21 12:36:23;;;;;;;2.22;0.60;;;24.90;99.90;;;;;;5053059;28;20494;-68
2023/08/21 12:38:48;;;;;;;2.80;1.30;;;25.00;99.90;;;;;;5053217;28;20041;-71
2023/08/21 12:41:14;;;;;;;3.33;0.90;;;24.90;99.90;;;;;;5035222;28;20036;-72
2023/08/21 12:43:39;;;;;;;2.05;0.60;;;24.80;99.90;;;;;;5052802;28;20044;-73
2023/08/21 12:46:05;;;;;;;1.58;0.80;;;25.00;99.90;;;;;;5052823;28;20080;-70